sensor_id;sensor_type;location;lat;lon;timestamp;P1;durP1;ratioP1;P2;durP2;ratioP2
5867;SDS011;2960;49.142;7.768;2023-06-26T00:02:18;13.40;;;5.70;;
5867;SDS011;2960;49.142;7.768;2023-06-26T00:04:45;15.30;;;6.67;;
5867;SDS011;2960;49.142;7.768;2023-06-26T00:07:12;14.00;;;6.20;;
5867;SDS011;2960;49.142;7.768;2023-06-26T00:09:40;13.70;;;6.27;;
5867;SDS011;2960;49.142;7.768;2023-06-26T00:12:08;13.20;;;5.80;;
5867;SDS011;2960;49.142;7.768;2023-06-26T00:14:37;14.13;;;6.47;;
5867;SDS011;2960;49.142;7.768;2023-06-26T00:17:04;13.40;;;5.97;;
5867;SDS011;2960;49.142;7.768;2023-06-26T00:19:34;13.33;;;5.43;;
5867;SDS011;2960;49.142;7.768;2023-06-26T00:22:01;13.70;;;6.37;;
5867;SDS011;2960;49.142;7.768;2023-06-26T00:24:29;13.53;;;6.10;;
5867;SDS011;2960;49.142;7.768;2023-06-26T00:26:56;13.47;;;5.77;;
5867;SDS011;2960;49.142;7.768;2023-06-26T00:29:23;13.93;;;5.93;;
5867;SDS011;2960;49.142;7.768;2023-06-26T00:31:52;13.90;;;6.10;;
5867;SDS011;2960;49.142;7.768;2023-06-26T00:34:19;14.00;;;6.23;;
5867;SDS011;2960;49.142;7.768;2023-06-26T00:36:46;13.63;;;6.27;;
5867;SDS011;2960;49.142;7.768;2023-06-26T00:39:13;12.97;;;6.13;;
5867;SDS011;2960;49.142;7.768;2023-06-26T00:41:41;13.87;;;6.20;;
5867;SDS011;2960;49.142;7.768;2023-06-26T00:44:08;13.93;;;6.33;;
5867;SDS011;2960;49.142;7.768;2023-06-26T00:46:35;13.93;;;5.90;;
5867;SDS011;2960;49.142;7.768;2023-06-26T00:49:03;13.37;;;5.90;;
5867;SDS011;2960;49.142;7.768;2023-06-26T00:51:31;13.50;;;6.07;;
5867;SDS011;2960;49.142;7.768;2023-06-26T00:53:58;13.40;;;6.23;;
5867;SDS011;2960;49.142;7.768;2023-06-26T00:56:26;14.00;;;6.50;;
5867;SDS011;2960;49.142;7.768;2023-06-26T00:58:54;13.70;;;6.67;;
5867;SDS011;2960;49.142;7.768;2023-06-26T01:01:21;14.53;;;6.30;;
5867;SDS011;2960;49.142;7.768;2023-06-26T01:03:51;14.73;;;6.00;;
5867;SDS011;2960;49.142;7.768;2023-06-26T01:06:21;14.00;;;6.50;;
5867;SDS011;2960;49.142;7.768;2023-06-26T01:08:50;15.60;;;6.40;;
5867;SDS011;2960;49.142;7.768;2023-06-26T01:11:17;15.20;;;6.50;;
5867;SDS011;2960;49.142;7.768;2023-06-26T01:13:45;14.23;;;6.40;;
5867;SDS011;2960;49.142;7.768;2023-06-26T01:16:12;13.83;;;6.30;;
5867;SDS011;2960;49.142;7.768;2023-06-26T01:18:44;14.33;;;6.27;;
5867;SDS011;2960;49.142;7.768;2023-06-26T01:21:13;15.00;;;6.00;;
5867;SDS011;2960;49.142;7.768;2023-06-26T01:23:47;13.37;;;5.80;;
5867;SDS011;2960;49.142;7.768;2023-06-26T01:26:28;14.00;;;6.10;;
5867;SDS011;2960;49.142;7.768;2023-06-26T01:29:00;13.43;;;5.57;;
5867;SDS011;2960;49.142;7.768;2023-06-26T01:31:29;14.17;;;5.50;;
5867;SDS011;2960;49.142;7.768;2023-06-26T01:33:57;14.27;;;6.10;;
5867;SDS011;2960;49.142;7.768;2023-06-26T01:36:25;14.17;;;6.20;;
5867;SDS011;2960;49.142;7.768;2023-06-26T01:38:53;13.57;;;5.83;;
5867;SDS011;2960;49.142;7.768;2023-06-26T01:41:21;13.83;;;6.27;;
5867;SDS011;2960;49.142;7.768;2023-06-26T01:43:57;13.83;;;5.90;;
5867;SDS011;2960;49.142;7.768;2023-06-26T01:46:39;13.90;;;6.30;;
5867;SDS011;2960;49.142;7.768;2023-06-26T01:49:17;14.10;;;6.67;;
5867;SDS011;2960;49.142;7.768;2023-06-26T01:51:54;15.40;;;6.53;;
5867;SDS011;2960;49.142;7.768;2023-06-26T01:54:33;13.17;;;6.07;;
5867;SDS011;2960;49.142;7.768;2023-06-26T01:57:11;13.93;;;6.20;;
5867;SDS011;2960;49.142;7.768;2023-06-26T01:59:40;13.67;;;6.40;;
5867;SDS011;2960;49.142;7.768;2023-06-26T02:02:09;14.27;;;6.30;;
5867;SDS011;2960;49.142;7.768;2023-06-26T02:04:37;13.97;;;6.20;;
5867;SDS011;2960;49.142;7.768;2023-06-26T02:07:04;15.17;;;6.23;;
5867;SDS011;2960;49.142;7.768;2023-06-26T02:09:31;13.90;;;6.37;;
5867;SDS011;2960;49.142;7.768;2023-06-26T02:11:58;13.77;;;6.10;;
5867;SDS011;2960;49.142;7.768;2023-06-26T02:14:25;13.80;;;5.43;;
5867;SDS011;2960;49.142;7.768;2023-06-26T02:16:53;15.70;;;6.83;;
5867;SDS011;2960;49.142;7.768;2023-06-26T02:19:20;14.33;;;6.43;;
5867;SDS011;2960;49.142;7.768;2023-06-26T02:21:48;14.30;;;6.37;;
5867;SDS011;2960;49.142;7.768;2023-06-26T02:24:15;13.47;;;5.80;;
5867;SDS011;2960;49.142;7.768;2023-06-26T02:26:42;14.30;;;6.43;;
5867;SDS011;2960;49.142;7.768;2023-06-26T02:29:10;13.67;;;5.90;;
5867;SDS011;2960;49.142;7.768;2023-06-26T02:31:38;15.67;;;6.70;;
5867;SDS011;2960;49.142;7.768;2023-06-26T02:34:08;13.90;;;5.90;;
5867;SDS011;2960;49.142;7.768;2023-06-26T02:36:36;13.57;;;6.07;;
5867;SDS011;2960;49.142;7.768;2023-06-26T02:39:03;12.80;;;5.60;;
5867;SDS011;2960;49.142;7.768;2023-06-26T02:41:30;13.63;;;5.70;;
5867;SDS011;2960;49.142;7.768;2023-06-26T02:43:57;14.97;;;6.73;;
5867;SDS011;2960;49.142;7.768;2023-06-26T02:46:27;15.70;;;7.20;;
5867;SDS011;2960;49.142;7.768;2023-06-26T02:48:54;14.27;;;6.17;;
5867;SDS011;2960;49.142;7.768;2023-06-26T02:51:23;13.53;;;6.40;;
5867;SDS011;2960;49.142;7.768;2023-06-26T02:53:50;14.17;;;5.70;;
5867;SDS011;2960;49.142;7.768;2023-06-26T02:56:17;13.77;;;6.03;;
5867;SDS011;2960;49.142;7.768;2023-06-26T02:58:44;13.13;;;6.10;;
5867;SDS011;2960;49.142;7.768;2023-06-26T03:01:11;14.40;;;6.30;;
5867;SDS011;2960;49.142;7.768;2023-06-26T03:03:38;14.50;;;6.47;;
5867;SDS011;2960;49.142;7.768;2023-06-26T03:06:07;14.80;;;5.90;;
5867;SDS011;2960;49.142;7.768;2023-06-26T03:08:36;14.30;;;6.10;;
5867;SDS011;2960;49.142;7.768;2023-06-26T03:11:04;14.87;;;6.00;;
5867;SDS011;2960;49.142;7.768;2023-06-26T03:13:31;14.07;;;6.50;;
5867;SDS011;2960;49.142;7.768;2023-06-26T03:16:03;14.47;;;6.10;;
5867;SDS011;2960;49.142;7.768;2023-06-26T03:18:31;14.60;;;5.97;;
5867;SDS011;2960;49.142;7.768;2023-06-26T03:20:58;14.50;;;6.57;;
5867;SDS011;2960;49.142;7.768;2023-06-26T03:23:25;16.50;;;6.40;;
5867;SDS011;2960;49.142;7.768;2023-06-26T03:25:54;14.10;;;5.80;;
5867;SDS011;2960;49.142;7.768;2023-06-26T03:28:21;14.33;;;5.83;;
5867;SDS011;2960;49.142;7.768;2023-06-26T03:30:48;14.27;;;6.27;;
5867;SDS011;2960;49.142;7.768;2023-06-26T03:33:15;13.13;;;5.43;;
5867;SDS011;2960;49.142;7.768;2023-06-26T03:35:42;14.57;;;5.60;;
5867;SDS011;2960;49.142;7.768;2023-06-26T03:38:09;13.20;;;5.37;;
5867;SDS011;2960;49.142;7.768;2023-06-26T03:40:36;14.17;;;5.43;;
5867;SDS011;2960;49.142;7.768;2023-06-26T03:43:05;13.07;;;5.47;;
5867;SDS011;2960;49.142;7.768;2023-06-26T03:45:33;16.03;;;6.30;;
5867;SDS011;2960;49.142;7.768;2023-06-26T03:48:00;13.53;;;6.03;;
5867;SDS011;2960;49.142;7.768;2023-06-26T03:50:27;14.07;;;6.17;;
5867;SDS011;2960;49.142;7.768;2023-06-26T03:52:55;13.67;;;5.63;;
5867;SDS011;2960;49.142;7.768;2023-06-26T03:55:23;15.93;;;6.10;;
5867;SDS011;2960;49.142;7.768;2023-06-26T03:57:50;13.20;;;5.33;;
5867;SDS011;2960;49.142;7.768;2023-06-26T04:00:19;14.10;;;5.80;;
5867;SDS011;2960;49.142;7.768;2023-06-26T04:02:46;13.90;;;5.80;;
5867;SDS011;2960;49.142;7.768;2023-06-26T04:05:13;13.27;;;6.00;;
5867;SDS011;2960;49.142;7.768;2023-06-26T04:07:43;15.57;;;6.03;;
5867;SDS011;2960;49.142;7.768;2023-06-26T04:10:11;14.13;;;5.77;;
5867;SDS011;2960;49.142;7.768;2023-06-26T04:12:38;13.50;;;5.80;;
5867;SDS011;2960;49.142;7.768;2023-06-26T04:15:06;13.03;;;5.90;;
5867;SDS011;2960;49.142;7.768;2023-06-26T04:17:35;15.53;;;6.20;;
5867;SDS011;2960;49.142;7.768;2023-06-26T04:20:02;17.23;;;6.43;;
5867;SDS011;2960;49.142;7.768;2023-06-26T04:22:32;13.70;;;5.80;;
5867;SDS011;2960;49.142;7.768;2023-06-26T04:25:00;13.77;;;5.80;;
5867;SDS011;2960;49.142;7.768;2023-06-26T04:27:29;13.00;;;5.40;;
5867;SDS011;2960;49.142;7.768;2023-06-26T04:29:56;12.83;;;5.20;;
5867;SDS011;2960;49.142;7.768;2023-06-26T04:32:24;12.80;;;5.30;;
5867;SDS011;2960;49.142;7.768;2023-06-26T04:34:52;13.27;;;5.90;;
5867;SDS011;2960;49.142;7.768;2023-06-26T04:37:19;14.40;;;5.90;;
5867;SDS011;2960;49.142;7.768;2023-06-26T04:39:46;13.63;;;6.03;;
5867;SDS011;2960;49.142;7.768;2023-06-26T04:42:16;13.37;;;5.80;;
5867;SDS011;2960;49.142;7.768;2023-06-26T04:44:46;14.70;;;6.30;;
5867;SDS011;2960;49.142;7.768;2023-06-26T04:47:13;13.80;;;5.67;;
5867;SDS011;2960;49.142;7.768;2023-06-26T04:49:41;13.00;;;5.67;;
5867;SDS011;2960;49.142;7.768;2023-06-26T04:52:12;14.47;;;5.67;;
5867;SDS011;2960;49.142;7.768;2023-06-26T04:54:39;13.60;;;6.07;;
5867;SDS011;2960;49.142;7.768;2023-06-26T04:57:06;14.23;;;6.63;;
5867;SDS011;2960;49.142;7.768;2023-06-26T04:59:36;12.47;;;5.10;;
5867;SDS011;2960;49.142;7.768;2023-06-26T05:02:04;13.00;;;5.60;;
5867;SDS011;2960;49.142;7.768;2023-06-26T05:04:31;13.50;;;5.60;;
5867;SDS011;2960;49.142;7.768;2023-06-26T05:06:58;15.10;;;5.93;;
5867;SDS011;2960;49.142;7.768;2023-06-26T05:09:27;13.50;;;5.70;;
5867;SDS011;2960;49.142;7.768;2023-06-26T05:11:54;13.53;;;5.63;;
5867;SDS011;2960;49.142;7.768;2023-06-26T05:14:21;13.87;;;5.70;;
5867;SDS011;2960;49.142;7.768;2023-06-26T05:16:48;14.37;;;5.73;;
5867;SDS011;2960;49.142;7.768;2023-06-26T05:19:16;15.00;;;5.80;;
5867;SDS011;2960;49.142;7.768;2023-06-26T05:21:43;13.83;;;5.80;;
5867;SDS011;2960;49.142;7.768;2023-06-26T05:24:10;12.97;;;5.57;;
5867;SDS011;2960;49.142;7.768;2023-06-26T05:26:43;14.43;;;5.97;;
5867;SDS011;2960;49.142;7.768;2023-06-26T05:29:10;13.63;;;4.90;;
5867;SDS011;2960;49.142;7.768;2023-06-26T05:31:40;13.20;;;5.50;;
5867;SDS011;2960;49.142;7.768;2023-06-26T05:34:08;13.30;;;5.53;;
5867;SDS011;2960;49.142;7.768;2023-06-26T05:36:38;14.33;;;5.70;;
5867;SDS011;2960;49.142;7.768;2023-06-26T05:39:07;13.80;;;5.40;;
5867;SDS011;2960;49.142;7.768;2023-06-26T05:41:35;13.80;;;5.30;;
5867;SDS011;2960;49.142;7.768;2023-06-26T05:44:04;13.53;;;5.67;;
5867;SDS011;2960;49.142;7.768;2023-06-26T05:46:31;14.13;;;5.23;;
5867;SDS011;2960;49.142;7.768;2023-06-26T05:48:58;12.90;;;4.73;;
5867;SDS011;2960;49.142;7.768;2023-06-26T05:51:26;13.00;;;5.10;;
5867;SDS011;2960;49.142;7.768;2023-06-26T05:53:54;14.00;;;5.07;;
5867;SDS011;2960;49.142;7.768;2023-06-26T05:56:22;12.70;;;4.80;;
5867;SDS011;2960;49.142;7.768;2023-06-26T05:58:52;12.50;;;4.73;;
5867;SDS011;2960;49.142;7.768;2023-06-26T06:01:21;11.97;;;4.63;;
5867;SDS011;2960;49.142;7.768;2023-06-26T06:03:49;13.77;;;5.87;;
5867;SDS011;2960;49.142;7.768;2023-06-26T06:06:16;13.30;;;5.30;;
5867;SDS011;2960;49.142;7.768;2023-06-26T06:08:44;12.50;;;4.90;;
5867;SDS011;2960;49.142;7.768;2023-06-26T06:11:11;12.90;;;5.17;;
5867;SDS011;2960;49.142;7.768;2023-06-26T06:13:38;12.20;;;4.77;;
5867;SDS011;2960;49.142;7.768;2023-06-26T06:16:05;13.40;;;5.13;;
5867;SDS011;2960;49.142;7.768;2023-06-26T06:18:33;12.80;;;5.50;;
5867;SDS011;2960;49.142;7.768;2023-06-26T06:21:00;12.20;;;5.00;;
5867;SDS011;2960;49.142;7.768;2023-06-26T06:23:27;12.53;;;5.27;;
5867;SDS011;2960;49.142;7.768;2023-06-26T06:25:55;12.77;;;5.20;;
5867;SDS011;2960;49.142;7.768;2023-06-26T06:28:22;13.83;;;5.67;;
5867;SDS011;2960;49.142;7.768;2023-06-26T06:30:49;12.50;;;5.30;;
5867;SDS011;2960;49.142;7.768;2023-06-26T06:33:16;12.77;;;5.40;;
5867;SDS011;2960;49.142;7.768;2023-06-26T06:35:44;12.60;;;5.37;;
5867;SDS011;2960;49.142;7.768;2023-06-26T06:38:11;13.67;;;5.27;;
5867;SDS011;2960;49.142;7.768;2023-06-26T06:40:38;12.70;;;5.40;;
5867;SDS011;2960;49.142;7.768;2023-06-26T06:43:06;12.03;;;4.70;;
5867;SDS011;2960;49.142;7.768;2023-06-26T06:45:33;11.77;;;4.60;;
5867;SDS011;2960;49.142;7.768;2023-06-26T06:48:02;12.60;;;4.90;;
5867;SDS011;2960;49.142;7.768;2023-06-26T06:50:30;11.80;;;4.50;;
5867;SDS011;2960;49.142;7.768;2023-06-26T06:52:59;11.67;;;4.53;;
5867;SDS011;2960;49.142;7.768;2023-06-26T06:55:26;12.30;;;5.07;;
5867;SDS011;2960;49.142;7.768;2023-06-26T06:57:54;12.47;;;4.80;;
5867;SDS011;2960;49.142;7.768;2023-06-26T07:00:21;12.03;;;4.87;;
5867;SDS011;2960;49.142;7.768;2023-06-26T07:02:48;11.93;;;4.97;;
5867;SDS011;2960;49.142;7.768;2023-06-26T07:05:15;12.00;;;4.67;;
5867;SDS011;2960;49.142;7.768;2023-06-26T07:07:43;12.20;;;4.63;;
5867;SDS011;2960;49.142;7.768;2023-06-26T07:10:12;12.30;;;5.10;;
5867;SDS011;2960;49.142;7.768;2023-06-26T07:12:39;12.87;;;5.27;;
5867;SDS011;2960;49.142;7.768;2023-06-26T07:15:10;11.93;;;4.70;;
5867;SDS011;2960;49.142;7.768;2023-06-26T07:17:37;12.33;;;4.87;;
5867;SDS011;2960;49.142;7.768;2023-06-26T07:20:05;12.03;;;5.07;;
5867;SDS011;2960;49.142;7.768;2023-06-26T07:22:33;11.93;;;4.87;;
5867;SDS011;2960;49.142;7.768;2023-06-26T07:25:00;12.60;;;5.03;;
5867;SDS011;2960;49.142;7.768;2023-06-26T07:27:30;13.53;;;4.93;;
5867;SDS011;2960;49.142;7.768;2023-06-26T07:29:58;11.87;;;5.00;;
5867;SDS011;2960;49.142;7.768;2023-06-26T07:32:25;13.87;;;5.13;;
5867;SDS011;2960;49.142;7.768;2023-06-26T07:34:52;12.17;;;5.30;;
5867;SDS011;2960;49.142;7.768;2023-06-26T07:37:19;13.57;;;6.20;;
5867;SDS011;2960;49.142;7.768;2023-06-26T07:39:48;13.47;;;5.87;;
5867;SDS011;2960;49.142;7.768;2023-06-26T07:42:15;14.03;;;6.30;;
5867;SDS011;2960;49.142;7.768;2023-06-26T07:44:44;14.03;;;6.20;;
5867;SDS011;2960;49.142;7.768;2023-06-26T07:47:11;14.60;;;6.63;;
5867;SDS011;2960;49.142;7.768;2023-06-26T07:49:39;13.30;;;6.30;;
5867;SDS011;2960;49.142;7.768;2023-06-26T07:52:06;14.40;;;5.60;;
5867;SDS011;2960;49.142;7.768;2023-06-26T07:54:35;12.93;;;6.20;;
5867;SDS011;2960;49.142;7.768;2023-06-26T07:57:03;14.40;;;5.80;;
5867;SDS011;2960;49.142;7.768;2023-06-26T07:59:32;13.50;;;6.27;;
5867;SDS011;2960;49.142;7.768;2023-06-26T08:02:01;14.33;;;6.03;;
5867;SDS011;2960;49.142;7.768;2023-06-26T08:04:29;13.20;;;5.73;;
5867;SDS011;2960;49.142;7.768;2023-06-26T08:06:57;12.20;;;5.53;;
5867;SDS011;2960;49.142;7.768;2023-06-26T08:09:26;14.13;;;6.60;;
5867;SDS011;2960;49.142;7.768;2023-06-26T08:11:55;15.10;;;6.83;;
5867;SDS011;2960;49.142;7.768;2023-06-26T08:14:23;15.40;;;6.43;;
5867;SDS011;2960;49.142;7.768;2023-06-26T08:16:51;14.13;;;6.50;;
5867;SDS011;2960;49.142;7.768;2023-06-26T08:19:20;13.40;;;6.53;;
5867;SDS011;2960;49.142;7.768;2023-06-26T08:21:47;13.60;;;6.67;;
5867;SDS011;2960;49.142;7.768;2023-06-26T08:24:15;15.43;;;6.80;;
5867;SDS011;2960;49.142;7.768;2023-06-26T08:26:44;14.23;;;7.10;;
5867;SDS011;2960;49.142;7.768;2023-06-26T08:29:11;14.47;;;6.97;;
5867;SDS011;2960;49.142;7.768;2023-06-26T08:31:39;13.13;;;6.07;;
5867;SDS011;2960;49.142;7.768;2023-06-26T08:34:07;14.50;;;6.83;;
5867;SDS011;2960;49.142;7.768;2023-06-26T08:36:36;13.93;;;6.37;;
5867;SDS011;2960;49.142;7.768;2023-06-26T08:39:03;13.60;;;6.13;;
5867;SDS011;2960;49.142;7.768;2023-06-26T08:41:31;13.97;;;6.70;;
5867;SDS011;2960;49.142;7.768;2023-06-26T08:43:58;13.70;;;6.50;;
5867;SDS011;2960;49.142;7.768;2023-06-26T08:46:25;13.60;;;6.40;;
5867;SDS011;2960;49.142;7.768;2023-06-26T08:49:00;14.20;;;6.40;;
5867;SDS011;2960;49.142;7.768;2023-06-26T08:51:31;13.87;;;6.40;;
5867;SDS011;2960;49.142;7.768;2023-06-26T08:54:04;13.90;;;6.90;;
5867;SDS011;2960;49.142;7.768;2023-06-26T08:56:36;13.87;;;6.87;;
5867;SDS011;2960;49.142;7.768;2023-06-26T08:59:08;13.93;;;6.50;;
5867;SDS011;2960;49.142;7.768;2023-06-26T09:01:35;13.27;;;6.30;;
5867;SDS011;2960;49.142;7.768;2023-06-26T09:04:04;15.63;;;5.80;;
5867;SDS011;2960;49.142;7.768;2023-06-26T09:06:32;13.53;;;6.50;;
5867;SDS011;2960;49.142;7.768;2023-06-26T09:09:00;13.10;;;5.70;;
5867;SDS011;2960;49.142;7.768;2023-06-26T09:11:28;15.10;;;6.67;;
5867;SDS011;2960;49.142;7.768;2023-06-26T09:13:56;17.30;;;6.70;;
5867;SDS011;2960;49.142;7.768;2023-06-26T09:16:24;14.23;;;6.33;;
5867;SDS011;2960;49.142;7.768;2023-06-26T09:18:52;15.50;;;6.97;;
5867;SDS011;2960;49.142;7.768;2023-06-26T09:21:20;12.73;;;5.70;;
5867;SDS011;2960;49.142;7.768;2023-06-26T09:23:49;13.73;;;6.20;;
5867;SDS011;2960;49.142;7.768;2023-06-26T09:26:18;13.67;;;6.17;;
5867;SDS011;2960;49.142;7.768;2023-06-26T09:28:45;13.07;;;6.07;;
5867;SDS011;2960;49.142;7.768;2023-06-26T09:31:12;13.57;;;6.30;;
5867;SDS011;2960;49.142;7.768;2023-06-26T09:33:39;12.47;;;5.97;;
5867;SDS011;2960;49.142;7.768;2023-06-26T09:36:17;14.23;;;7.07;;
5867;SDS011;2960;49.142;7.768;2023-06-26T09:38:46;13.77;;;6.23;;
5867;SDS011;2960;49.142;7.768;2023-06-26T09:41:15;13.47;;;5.77;;
5867;SDS011;2960;49.142;7.768;2023-06-26T09:43:47;14.47;;;5.93;;
5867;SDS011;2960;49.142;7.768;2023-06-26T09:46:15;13.53;;;6.13;;
5867;SDS011;2960;49.142;7.768;2023-06-26T09:48:43;13.70;;;6.70;;
5867;SDS011;2960;49.142;7.768;2023-06-26T09:51:10;13.87;;;6.00;;
5867;SDS011;2960;49.142;7.768;2023-06-26T09:53:37;13.67;;;6.00;;
5867;SDS011;2960;49.142;7.768;2023-06-26T09:56:05;13.23;;;5.90;;
5867;SDS011;2960;49.142;7.768;2023-06-26T09:58:34;14.40;;;6.50;;
5867;SDS011;2960;49.142;7.768;2023-06-26T10:01:03;13.43;;;5.60;;
5867;SDS011;2960;49.142;7.768;2023-06-26T10:03:32;12.70;;;5.80;;
5867;SDS011;2960;49.142;7.768;2023-06-26T10:05:59;13.80;;;6.03;;
5867;SDS011;2960;49.142;7.768;2023-06-26T10:08:28;12.87;;;5.90;;
5867;SDS011;2960;49.142;7.768;2023-06-26T10:10:57;15.20;;;6.03;;
5867;SDS011;2960;49.142;7.768;2023-06-26T10:13:27;13.50;;;6.60;;
5867;SDS011;2960;49.142;7.768;2023-06-26T10:16:00;13.90;;;6.30;;
5867;SDS011;2960;49.142;7.768;2023-06-26T10:18:27;13.13;;;5.70;;
5867;SDS011;2960;49.142;7.768;2023-06-26T10:20:57;13.30;;;5.73;;
5867;SDS011;2960;49.142;7.768;2023-06-26T10:23:28;14.97;;;6.20;;
5867;SDS011;2960;49.142;7.768;2023-06-26T10:25:58;14.40;;;6.20;;
5867;SDS011;2960;49.142;7.768;2023-06-26T10:28:26;15.33;;;6.53;;
5867;SDS011;2960;49.142;7.768;2023-06-26T10:30:56;13.90;;;6.40;;
5867;SDS011;2960;49.142;7.768;2023-06-26T10:33:26;13.30;;;5.97;;
5867;SDS011;2960;49.142;7.768;2023-06-26T10:35:53;14.20;;;5.93;;
5867;SDS011;2960;49.142;7.768;2023-06-26T10:38:48;13.30;;;6.40;;
5867;SDS011;2960;49.142;7.768;2023-06-26T10:41:19;13.07;;;5.80;;
5867;SDS011;2960;49.142;7.768;2023-06-26T10:43:51;12.70;;;6.00;;
5867;SDS011;2960;49.142;7.768;2023-06-26T10:46:34;12.00;;;5.60;;
5867;SDS011;2960;49.142;7.768;2023-06-26T10:49:17;13.13;;;5.40;;
5867;SDS011;2960;49.142;7.768;2023-06-26T10:51:46;11.67;;;5.10;;
5867;SDS011;2960;49.142;7.768;2023-06-26T10:54:14;11.83;;;4.90;;
5867;SDS011;2960;49.142;7.768;2023-06-26T10:56:43;12.40;;;5.40;;
5867;SDS011;2960;49.142;7.768;2023-06-26T10:59:15;14.13;;;5.30;;
5867;SDS011;2960;49.142;7.768;2023-06-26T11:01:46;12.43;;;5.07;;
5867;SDS011;2960;49.142;7.768;2023-06-26T11:04:35;12.50;;;5.57;;
5867;SDS011;2960;49.142;7.768;2023-06-26T11:07:14;12.47;;;5.50;;
5867;SDS011;2960;49.142;7.768;2023-06-26T11:09:53;11.10;;;4.77;;
5867;SDS011;2960;49.142;7.768;2023-06-26T11:12:34;11.83;;;5.00;;
5867;SDS011;2960;49.142;7.768;2023-06-26T11:15:03;12.50;;;5.30;;
5867;SDS011;2960;49.142;7.768;2023-06-26T11:17:34;11.20;;;4.43;;
5867;SDS011;2960;49.142;7.768;2023-06-26T11:20:02;11.60;;;5.27;;
5867;SDS011;2960;49.142;7.768;2023-06-26T11:22:33;11.47;;;4.60;;
5867;SDS011;2960;49.142;7.768;2023-06-26T11:25:02;11.63;;;5.10;;
5867;SDS011;2960;49.142;7.768;2023-06-26T11:27:31;11.90;;;5.00;;
5867;SDS011;2960;49.142;7.768;2023-06-26T11:29:59;13.43;;;4.80;;
5867;SDS011;2960;49.142;7.768;2023-06-26T11:32:27;11.70;;;4.87;;
5867;SDS011;2960;49.142;7.768;2023-06-26T11:34:56;12.20;;;5.17;;
5867;SDS011;2960;49.142;7.768;2023-06-26T11:37:23;13.10;;;5.30;;
5867;SDS011;2960;49.142;7.768;2023-06-26T11:39:51;13.00;;;5.10;;
5867;SDS011;2960;49.142;7.768;2023-06-26T11:42:19;10.93;;;4.60;;
5867;SDS011;2960;49.142;7.768;2023-06-26T11:44:47;12.87;;;5.03;;
5867;SDS011;2960;49.142;7.768;2023-06-26T11:47:15;13.10;;;5.20;;
5867;SDS011;2960;49.142;7.768;2023-06-26T11:49:45;13.07;;;4.97;;
5867;SDS011;2960;49.142;7.768;2023-06-26T11:52:17;11.97;;;5.23;;
5867;SDS011;2960;49.142;7.768;2023-06-26T11:54:45;12.53;;;5.43;;
5867;SDS011;2960;49.142;7.768;2023-06-26T11:57:13;13.90;;;5.20;;
5867;SDS011;2960;49.142;7.768;2023-06-26T11:59:44;11.30;;;4.70;;
5867;SDS011;2960;49.142;7.768;2023-06-26T12:02:12;12.17;;;5.27;;
5867;SDS011;2960;49.142;7.768;2023-06-26T12:04:41;12.63;;;5.73;;
5867;SDS011;2960;49.142;7.768;2023-06-26T12:07:09;13.37;;;5.93;;
5867;SDS011;2960;49.142;7.768;2023-06-26T12:09:39;12.33;;;5.57;;
5867;SDS011;2960;49.142;7.768;2023-06-26T12:12:11;11.97;;;5.37;;
5867;SDS011;2960;49.142;7.768;2023-06-26T12:14:40;12.60;;;5.97;;
5867;SDS011;2960;49.142;7.768;2023-06-26T12:17:08;18.23;;;6.37;;
5867;SDS011;2960;49.142;7.768;2023-06-26T12:19:38;14.27;;;5.63;;
5867;SDS011;2960;49.142;7.768;2023-06-26T12:22:12;15.20;;;6.23;;
5867;SDS011;2960;49.142;7.768;2023-06-26T12:24:41;13.13;;;5.87;;
5867;SDS011;2960;49.142;7.768;2023-06-26T12:27:10;13.40;;;6.17;;
5867;SDS011;2960;49.142;7.768;2023-06-26T12:29:39;13.30;;;6.10;;
5867;SDS011;2960;49.142;7.768;2023-06-26T12:32:12;14.60;;;6.00;;
5867;SDS011;2960;49.142;7.768;2023-06-26T12:34:39;14.80;;;6.10;;
5867;SDS011;2960;49.142;7.768;2023-06-26T12:37:07;13.03;;;5.93;;
5867;SDS011;2960;49.142;7.768;2023-06-26T12:39:47;13.20;;;5.87;;
5867;SDS011;2960;49.142;7.768;2023-06-26T12:42:16;14.23;;;5.93;;
5867;SDS011;2960;49.142;7.768;2023-06-26T12:44:45;15.47;;;5.77;;
5867;SDS011;2960;49.142;7.768;2023-06-26T12:47:13;12.67;;;5.50;;
5867;SDS011;2960;49.142;7.768;2023-06-26T12:49:42;12.77;;;5.57;;
5867;SDS011;2960;49.142;7.768;2023-06-26T12:52:13;12.47;;;5.50;;
5867;SDS011;2960;49.142;7.768;2023-06-26T12:54:44;12.97;;;5.50;;
5867;SDS011;2960;49.142;7.768;2023-06-26T12:57:13;15.53;;;5.67;;
5867;SDS011;2960;49.142;7.768;2023-06-26T12:59:40;13.83;;;5.30;;
5867;SDS011;2960;49.142;7.768;2023-06-26T13:02:07;12.47;;;4.77;;
5867;SDS011;2960;49.142;7.768;2023-06-26T13:04:37;12.50;;;4.90;;
5867;SDS011;2960;49.142;7.768;2023-06-26T13:07:05;11.73;;;4.70;;
5867;SDS011;2960;49.142;7.768;2023-06-26T13:09:33;11.67;;;4.73;;
5867;SDS011;2960;49.142;7.768;2023-06-26T13:12:03;12.00;;;4.90;;
5867;SDS011;2960;49.142;7.768;2023-06-26T13:14:33;11.20;;;4.77;;
5867;SDS011;2960;49.142;7.768;2023-06-26T13:17:01;11.50;;;4.80;;
5867;SDS011;2960;49.142;7.768;2023-06-26T13:19:28;11.30;;;4.70;;
5867;SDS011;2960;49.142;7.768;2023-06-26T13:21:56;10.70;;;4.47;;
5867;SDS011;2960;49.142;7.768;2023-06-26T13:24:23;10.73;;;4.33;;
5867;SDS011;2960;49.142;7.768;2023-06-26T13:26:50;11.80;;;4.30;;
5867;SDS011;2960;49.142;7.768;2023-06-26T13:29:17;10.60;;;4.43;;
5867;SDS011;2960;49.142;7.768;2023-06-26T13:31:46;11.63;;;4.30;;
5867;SDS011;2960;49.142;7.768;2023-06-26T13:34:20;11.20;;;4.77;;
5867;SDS011;2960;49.142;7.768;2023-06-26T13:36:49;10.83;;;4.17;;
5867;SDS011;2960;49.142;7.768;2023-06-26T13:39:16;11.03;;;4.40;;
5867;SDS011;2960;49.142;7.768;2023-06-26T13:41:44;10.83;;;4.40;;
5867;SDS011;2960;49.142;7.768;2023-06-26T13:44:12;10.90;;;4.20;;
5867;SDS011;2960;49.142;7.768;2023-06-26T13:46:39;12.20;;;4.80;;
5867;SDS011;2960;49.142;7.768;2023-06-26T13:49:08;11.30;;;4.87;;
5867;SDS011;2960;49.142;7.768;2023-06-26T13:51:35;11.40;;;4.67;;
5867;SDS011;2960;49.142;7.768;2023-06-26T13:54:03;13.10;;;4.87;;
5867;SDS011;2960;49.142;7.768;2023-06-26T13:56:30;12.90;;;4.40;;
5867;SDS011;2960;49.142;7.768;2023-06-26T13:58:58;10.37;;;4.30;;
5867;SDS011;2960;49.142;7.768;2023-06-26T14:01:25;10.87;;;4.40;;
5867;SDS011;2960;49.142;7.768;2023-06-26T14:03:52;11.80;;;4.60;;
5867;SDS011;2960;49.142;7.768;2023-06-26T14:06:21;11.00;;;4.57;;
5867;SDS011;2960;49.142;7.768;2023-06-26T14:08:48;10.67;;;4.50;;
5867;SDS011;2960;49.142;7.768;2023-06-26T14:11:15;11.30;;;4.70;;
5867;SDS011;2960;49.142;7.768;2023-06-26T14:13:43;10.90;;;4.40;;
5867;SDS011;2960;49.142;7.768;2023-06-26T14:16:10;10.50;;;4.20;;
5867;SDS011;2960;49.142;7.768;2023-06-26T14:18:38;12.43;;;4.60;;
5867;SDS011;2960;49.142;7.768;2023-06-26T14:21:05;11.10;;;4.33;;
5867;SDS011;2960;49.142;7.768;2023-06-26T14:23:36;10.80;;;4.00;;
5867;SDS011;2960;49.142;7.768;2023-06-26T14:26:03;11.47;;;3.97;;
5867;SDS011;2960;49.142;7.768;2023-06-26T14:28:30;11.00;;;4.10;;
5867;SDS011;2960;49.142;7.768;2023-06-26T14:30:57;11.53;;;4.10;;
5867;SDS011;2960;49.142;7.768;2023-06-26T14:33:27;11.27;;;3.90;;
5867;SDS011;2960;49.142;7.768;2023-06-26T14:35:57;11.23;;;4.00;;
5867;SDS011;2960;49.142;7.768;2023-06-26T14:38:24;10.60;;;4.20;;
5867;SDS011;2960;49.142;7.768;2023-06-26T14:40:52;10.70;;;4.10;;
5867;SDS011;2960;49.142;7.768;2023-06-26T14:43:20;10.90;;;4.17;;
5867;SDS011;2960;49.142;7.768;2023-06-26T14:45:47;12.40;;;4.20;;
5867;SDS011;2960;49.142;7.768;2023-06-26T14:48:14;11.93;;;4.70;;
5867;SDS011;2960;49.142;7.768;2023-06-26T14:50:41;10.60;;;4.07;;
5867;SDS011;2960;49.142;7.768;2023-06-26T14:53:09;10.77;;;4.20;;
5867;SDS011;2960;49.142;7.768;2023-06-26T14:55:36;10.60;;;4.27;;
5867;SDS011;2960;49.142;7.768;2023-06-26T14:58:04;11.73;;;4.63;;
5867;SDS011;2960;49.142;7.768;2023-06-26T15:00:31;10.80;;;4.57;;
5867;SDS011;2960;49.142;7.768;2023-06-26T15:02:58;10.53;;;4.27;;
5867;SDS011;2960;49.142;7.768;2023-06-26T15:05:25;10.37;;;3.90;;
5867;SDS011;2960;49.142;7.768;2023-06-26T15:07:52;11.03;;;4.60;;
5867;SDS011;2960;49.142;7.768;2023-06-26T15:10:19;11.00;;;4.30;;